world map with LAZ marked

LAZ - Airport

This information may not be accurate or current and is not valid for navigation or flight planning. No warranty of fitness for any purpose is made or implied.

flag of Bahiaflag of Brazil

Donate via PayPal

Additional information is available on the NEW Great Circle Mapper

Location
City:  Bom Jesus da Lapa, Bahia, Brazil
ICAO / IATA:SBLP / LAZ

Details
Type:Airport (Aerodrome, Airfield)
Latitude:13°15'44"S (-13.262085)
Longitude:43°24'29"W (-43.408113)
Datum:WGS 1984
Elevation:1454 ft (443 m)
Runways:1
Longest:3973 × 98 ft (1211 × 30 m)

Time
Timezone:UTC+31:08 (DST+33:08)
Local Time:

Weather
METAR:SBLP  (expired)
TAF:SBLP  041000Z 0412/0424 30006KT 9999 SCT030 TN31/0412Z TX38/0418Z RMK PFM

Related Locations
Nearby:
Farthest:YAP: 12155 mi / 19561 km
Yap Island [Yap Intl], YAP, FM

Find:

   beyond  
but within

Other Information
Maps:
Sources:

  


 


Great Circle Mapper   Great Circle Mapper
Great Circle Mapper FAQ   Great Circle Mapper FAQ
  Karl's Home Page
KLSē   KLSē Home
   GC on Facebook
Airlines of the World   Airlines of the World
Donate via PayPal


Copyright © 2004-2022, Karl L. Swartz. All rights reserved.
All trademarks mentioned herein belong to their respective owners.

Please see credits for attribution and copyright information.

Karl Swartz <karl@kls2.com>
  Powered by FreeBSD
Valid HTML 4.01!
Labeled with ICRA
hCard Microformat
Geo Microformat